Terminal Aerodrome Forecast
Issued by NWS Northern Indiana

Home | Current Version | Previous Version | Graphics & Text | Print | Product List | Glossary On
Versions: 1 2 3 4 5 6 7 8 9 10 11 12 13 14 15 16 17 18
000
FTUS43 KIWX 140800 AAA
TAFFWA
TAF AMD
KFWA 140843Z 1409/1506 20020G30KT 6SM SHRA BKN050 OVC100
     FM141200 20018G28KT 6SM -SHRA OVC030
     FM141500 29018G28KT P6SM VCSH OVC015
     FM141800 30015G25KT P6SM OVC020
     FM150300 32015KT 2SM -SN OVC010=

USA.gov is the U.S. government's official web portal to all federal, state and local government web resources and services.